createdAt,value
2022-08-17T00:00:42.789Z,21.38
2022-08-17T00:03:15.128Z,20.30
2022-08-17T00:05:48.092Z,21.50
2022-08-17T00:08:19.064Z,19.95
2022-08-17T00:10:48.871Z,20.77
2022-08-17T00:13:20.481Z,19.55
2022-08-17T00:15:48.935Z,19.55
2022-08-17T00:18:58.328Z,19.13
2022-08-17T00:21:10.420Z,18.73
2022-08-17T00:23:44.242Z,20.90
2022-08-17T00:26:34.590Z,19.75
2022-08-17T00:29:06.793Z,19.13
2022-08-17T00:31:35.684Z,19.35
2022-08-17T00:34:04.461Z,21.13
2022-08-17T00:36:32.539Z,19.98
2022-08-17T00:39:00.598Z,20.58
2022-08-17T00:41:32.582Z,20.55
2022-08-17T00:44:03.962Z,20.58
2022-08-17T00:46:35.986Z,19.92
2022-08-17T00:49:05.863Z,20.65
2022-08-17T00:51:38.856Z,20.65
2022-08-17T00:54:12.826Z,19.98
2022-08-17T00:56:57.518Z,21.02
2022-08-17T00:59:30.935Z,21.15
2022-08-17T01:01:59.569Z,21.00
2022-08-17T01:04:30.192Z,20.98
2022-08-17T01:07:02.054Z,20.00
2022-08-17T01:09:30.249Z,21.07
2022-08-17T01:12:01.559Z,21.30
2022-08-17T01:14:29.749Z,20.63
2022-08-17T01:16:58.018Z,22.67
2022-08-17T01:19:29.127Z,20.98
2022-08-17T01:22:04.663Z,20.98
2022-08-17T01:24:38.259Z,20.90
2022-08-17T01:27:10.309Z,20.52
2022-08-17T01:29:42.191Z,21.77
2022-08-17T01:32:11.121Z,21.70
2022-08-17T01:34:43.809Z,21.98
2022-08-17T01:37:19.797Z,21.27
2022-08-17T01:39:53.740Z,21.70
2022-08-17T01:42:28.079Z,22.15
2022-08-17T01:44:58.944Z,20.60
2022-08-17T01:47:27.236Z,21.05
2022-08-17T01:49:59.765Z,21.38
2022-08-17T01:52:29.006Z,22.00
2022-08-17T01:54:58.668Z,22.90
2022-08-17T01:57:26.743Z,22.92
2022-08-17T02:00:12.862Z,23.27
2022-08-17T02:02:46.640Z,22.45
2022-08-17T02:05:35.058Z,22.70
2022-08-17T02:08:07.321Z,22.52
2022-08-17T02:10:37.520Z,22.48
2022-08-17T02:13:15.219Z,22.75
2022-08-17T02:15:43.747Z,22.48
2022-08-17T02:18:14.462Z,23.38
2022-08-17T02:20:44.203Z,23.60
2022-08-17T02:23:14.476Z,22.98
2022-08-17T02:25:48.771Z,23.13
2022-08-17T02:28:17.831Z,21.85
2022-08-17T02:31:01.331Z,24.05
2022-08-17T02:33:42.503Z,23.30
2022-08-17T02:36:31.923Z,24.20
2022-08-17T02:39:07.422Z,24.92
2022-08-17T02:41:47.522Z,23.40
2022-08-17T02:44:38.942Z,24.27
2022-08-17T02:47:04.858Z,23.65
2022-08-17T02:49:32.994Z,23.70
2022-08-17T02:52:04.069Z,24.75
2022-08-17T02:54:40.053Z,24.35
2022-08-17T02:57:12.903Z,24.40
2022-08-17T02:59:46.778Z,24.42
2022-08-17T03:02:17.008Z,23.33
2022-08-17T03:04:45.074Z,23.48
2022-08-17T03:07:22.998Z,25.23
2022-08-17T03:09:57.293Z,23.70
2022-08-17T03:12:33.530Z,24.27
2022-08-17T03:15:04.511Z,24.10
2022-08-17T03:17:32.543Z,23.05
2022-08-17T03:20:00.706Z,24.48
2022-08-17T03:22:36.247Z,22.35
2022-08-17T03:25:10.516Z,23.33
2022-08-17T03:27:42.073Z,23.38
2022-08-17T03:30:14.179Z,22.88
2022-08-17T03:32:46.581Z,22.17
2022-08-17T03:35:17.841Z,23.30
2022-08-17T03:37:47.720Z,23.52
2022-08-17T03:40:37.013Z,22.70
2022-08-17T03:43:19.096Z,24.17
2022-08-17T03:46:04.563Z,23.95
2022-08-17T03:48:51.509Z,21.88
2022-08-17T03:51:45.904Z,22.70
2022-08-17T03:54:38.833Z,24.08
2022-08-17T03:57:10.180Z,24.65
2022-08-17T03:59:42.098Z,23.80
2022-08-17T04:02:16.011Z,22.73
2022-08-17T04:04:44.108Z,22.45
2022-08-17T04:07:12.459Z,24.20
2022-08-17T04:09:40.536Z,23.10
2022-08-17T04:12:08.952Z,22.65
2022-08-17T04:14:52.715Z,22.92
2022-08-17T04:17:26.094Z,22.65
2022-08-17T04:19:55.449Z,22.35
2022-08-17T04:22:30.415Z,22.30
2022-08-17T04:25:04.959Z,22.50
2022-08-17T04:27:33.846Z,22.58
2022-08-17T04:30:02.324Z,21.77
2022-08-17T04:33:04.429Z,20.67
2022-08-17T04:35:22.514Z,19.83
2022-08-17T04:37:51.051Z,20.60
2022-08-17T04:40:37.972Z,21.90
2022-08-17T04:43:09.026Z,19.75
2022-08-17T04:45:40.870Z,20.35
2022-08-17T04:48:33.374Z,20.15
2022-08-17T04:51:06.039Z,21.10
2022-08-17T04:53:34.185Z,20.58
2022-08-17T04:56:02.340Z,18.85
2022-08-17T04:58:32.426Z,20.05
2022-08-17T05:01:01.502Z,19.80
2022-08-17T05:03:37.632Z,20.08
2022-08-17T05:06:08.829Z,19.98
2022-08-17T05:08:38.864Z,20.45
2022-08-17T05:11:09.303Z,20.08
2022-08-17T05:13:37.645Z,18.98
2022-08-17T05:16:06.218Z,19.92
2022-08-17T05:18:37.288Z,19.35
2022-08-17T05:21:06.721Z,21.13
2022-08-17T05:23:42.626Z,20.20
2022-08-17T05:26:23.129Z,19.92
2022-08-17T05:28:56.956Z,18.80
2022-08-17T05:31:27.229Z,19.95
2022-08-17T05:33:58.311Z,18.90
2022-08-17T05:36:41.902Z,18.20
2022-08-17T05:39:16.810Z,18.35
2022-08-17T05:41:47.709Z,18.20
2022-08-17T05:44:15.941Z,17.88
2022-08-17T05:46:49.905Z,18.02
2022-08-17T05:52:20.738Z,17.83
2022-08-17T05:55:06.144Z,17.15
2022-08-17T05:57:53.035Z,16.15
2022-08-17T06:00:30.112Z,16.55
2022-08-17T06:03:17.588Z,17.13
2022-08-17T06:05:59.977Z,17.73
2022-08-17T06:08:36.145Z,16.48
2022-08-17T06:11:14.447Z,17.10
2022-08-17T06:14:04.148Z,17.38
2022-08-17T06:16:37.732Z,15.95
2022-08-17T06:19:14.538Z,17.42
2022-08-17T06:21:48.970Z,17.65
2022-08-17T06:24:35.028Z,16.75
2022-08-17T06:27:12.551Z,18.63
2022-08-17T06:29:54.764Z,18.23
2022-08-17T06:32:23.228Z,18.63
2022-08-17T06:34:54.070Z,20.10
2022-08-17T06:37:55.345Z,19.60
2022-08-17T06:40:45.613Z,20.35
2022-08-17T06:43:28.091Z,20.17
2022-08-17T06:46:04.107Z,20.75
2022-08-17T06:48:41.943Z,20.63
2022-08-17T06:51:18.891Z,20.58
2022-08-17T06:53:54.102Z,21.13
2022-08-17T06:56:54.586Z,21.17
2022-08-17T06:59:26.529Z,21.05
2022-08-17T07:02:29.036Z,20.80
2022-08-17T07:05:16.725Z,21.73
2022-08-17T07:08:09.391Z,21.07
2022-08-17T07:10:42.669Z,21.88
2022-08-17T07:13:35.202Z,21.58
2022-08-17T07:16:12.531Z,20.95
2022-08-17T07:18:40.697Z,21.27
2022-08-17T07:21:26.176Z,21.67
2022-08-17T07:24:08.048Z,21.20
2022-08-17T07:26:36.633Z,21.17
2022-08-17T07:29:06.950Z,20.55
2022-08-17T07:31:35.228Z,20.55
2022-08-17T07:34:08.469Z,21.45
2022-08-17T07:36:36.627Z,19.63
2022-08-17T07:39:06.290Z,21.38
2022-08-17T07:41:57.504Z,20.33
2022-08-17T07:44:29.133Z,21.23
2022-08-17T07:47:15.077Z,20.77
2022-08-17T07:49:46.882Z,19.75
2022-08-17T07:52:50.372Z,19.97
2022-08-17T07:55:30.434Z,19.55
2022-08-17T07:58:01.908Z,20.45
2022-08-17T08:00:34.342Z,21.50
2022-08-17T08:03:14.861Z,21.42
2022-08-17T08:05:53.092Z,21.15
2022-08-17T08:08:28.516Z,21.20
2022-08-17T08:11:11.764Z,20.08
2022-08-17T08:13:44.050Z,20.58
2022-08-17T08:16:29.345Z,20.90
2022-08-17T08:19:00.195Z,20.85
2022-08-17T08:21:46.531Z,21.80
2022-08-17T08:24:36.393Z,21.77
2022-08-17T08:27:19.330Z,21.33
2022-08-17T08:32:33.541Z,21.30
2022-08-17T08:35:07.433Z,21.35
2022-08-17T08:37:44.651Z,20.13
2022-08-17T08:40:33.380Z,20.55
2022-08-17T08:43:15.233Z,19.48
2022-08-17T08:45:53.060Z,20.83
2022-08-17T08:48:53.955Z,20.13
2022-08-17T08:51:40.076Z,19.98
2022-08-17T08:57:19.146Z,18.45
2022-08-17T09:02:20.990Z,18.00
2022-08-17T09:05:20.361Z,18.30
2022-08-17T09:07:58.560Z,18.17
2022-08-17T09:10:32.016Z,18.33
2022-08-17T09:13:10.223Z,18.67
2022-08-17T09:15:43.635Z,17.88
2022-08-17T09:18:58.977Z,17.90
2022-08-17T09:21:18.179Z,18.45
2022-08-17T09:23:59.682Z,18.98
2022-08-17T09:26:32.465Z,17.10
2022-08-17T09:29:04.789Z,17.80
2022-08-17T09:31:35.559Z,17.98
2022-08-17T09:34:19.394Z,16.63
2022-08-17T09:39:29.302Z,17.00
2022-08-17T09:42:06.017Z,17.13
2022-08-17T09:44:41.110Z,16.92
2022-08-17T09:47:15.660Z,17.45
2022-08-17T09:49:48.965Z,15.43
2022-08-17T09:52:22.586Z,16.02
2022-08-17T09:54:52.533Z,16.27
2022-08-17T09:57:40.001Z,14.95
2022-08-17T10:00:20.509Z,16.85
2022-08-17T10:03:22.185Z,14.80
2022-08-17T10:05:57.172Z,17.20
2022-08-17T10:08:37.282Z,17.05
2022-08-17T10:11:16.229Z,16.17
2022-08-17T10:13:53.084Z,18.10
2022-08-17T10:16:31.726Z,16.67
2022-08-17T10:19:13.772Z,17.80
2022-08-17T10:22:32.437Z,17.73
2022-08-17T10:25:22.137Z,16.45
2022-08-17T10:27:55.544Z,16.40
2022-08-17T10:30:27.772Z,18.00
2022-08-17T10:32:59.304Z,17.25
2022-08-17T10:35:35.549Z,17.88
2022-08-17T10:38:38.719Z,18.00
2022-08-17T10:41:21.852Z,17.77
2022-08-17T10:44:39.482Z,18.50
2022-08-17T10:47:04.488Z,18.60
2022-08-17T10:49:35.047Z,19.05
2022-08-17T10:52:26.225Z,19.67
2022-08-17T10:55:14.553Z,20.52
2022-08-17T10:57:44.824Z,19.40
2022-08-17T11:00:36.195Z,20.20
2022-08-17T11:03:19.766Z,18.38
2022-08-17T11:05:59.071Z,17.65
2022-08-17T11:09:21.032Z,18.52
2022-08-17T11:12:10.062Z,20.85
2022-08-17T11:14:55.418Z,19.17
2022-08-17T11:17:51.271Z,19.00
2022-08-17T11:20:57.819Z,18.02
2022-08-17T11:23:59.891Z,17.15
2022-08-17T11:26:31.990Z,17.25
2022-08-17T11:29:09.565Z,17.20
2022-08-17T11:31:43.474Z,19.67
2022-08-17T11:34:19.788Z,20.58
2022-08-17T11:37:06.199Z,19.25
2022-08-17T11:39:56.236Z,19.23
2022-08-17T11:42:39.716Z,19.48
2022-08-17T11:45:38.235Z,19.50
2022-08-17T11:48:35.712Z,21.27
2022-08-17T11:51:42.272Z,22.25
2022-08-17T11:54:34.354Z,23.85
2022-08-17T11:57:41.646Z,26.10
2022-08-17T12:00:57.650Z,25.70
2022-08-17T12:03:54.019Z,25.60
2022-08-17T12:06:45.141Z,26.90
2022-08-17T12:09:20.046Z,26.45
2022-08-17T12:12:13.116Z,27.67
2022-08-17T12:17:39.383Z,28.17
2022-08-17T12:20:21.533Z,28.85
2022-08-17T12:22:57.639Z,26.67
2022-08-17T12:25:35.795Z,26.50
2022-08-17T12:28:06.666Z,27.95
2022-08-17T12:30:36.690Z,28.55
2022-08-17T12:33:28.659Z,27.42
2022-08-17T12:36:03.101Z,25.77
2022-08-17T12:41:24.535Z,26.65
2022-08-17T12:44:02.665Z,27.35
2022-08-17T12:46:35.067Z,26.08
2022-08-17T12:49:35.940Z,26.20
2022-08-17T12:52:13.663Z,24.98
2022-08-17T12:55:04.796Z,24.67
2022-08-17T12:57:45.158Z,26.63
2022-08-17T13:00:17.854Z,25.88
2022-08-17T13:05:25.923Z,25.42
2022-08-17T13:08:00.435Z,26.67
2022-08-17T13:10:33.020Z,25.77
2022-08-17T13:15:38.403Z,25.83
2022-08-17T13:18:47.019Z,26.63
2022-08-17T13:21:38.643Z,25.77
2022-08-17T13:24:37.758Z,25.92
2022-08-17T13:27:10.066Z,26.10
2022-08-17T13:29:51.321Z,26.05
2022-08-17T13:32:24.069Z,27.88
2022-08-17T13:35:13.811Z,29.15
2022-08-17T13:38:02.355Z,27.48
2022-08-17T13:40:37.814Z,29.25
2022-08-17T13:43:06.763Z,29.77
2022-08-17T13:45:54.574Z,29.75
2022-08-17T13:48:27.048Z,29.65
2022-08-17T13:51:25.894Z,30.50
2022-08-17T13:54:24.476Z,30.02
2022-08-17T13:56:58.594Z,30.10
2022-08-17T13:59:54.728Z,31.83
2022-08-17T14:02:28.972Z,30.75
2022-08-17T14:05:00.530Z,32.00
2022-08-17T14:07:33.893Z,32.35
2022-08-17T14:10:08.758Z,32.40
2022-08-17T14:12:41.333Z,30.95
2022-08-17T14:15:12.471Z,31.90
2022-08-17T14:17:50.225Z,32.22
2022-08-17T14:20:24.089Z,32.90
2022-08-17T14:22:54.218Z,31.70
2022-08-17T14:25:25.964Z,32.78
2022-08-17T14:27:56.101Z,30.75
2022-08-17T14:30:30.826Z,32.47
2022-08-17T14:32:59.608Z,34.22
2022-08-17T14:35:30.622Z,30.73
2022-08-17T14:38:06.670Z,32.20
2022-08-17T14:40:36.949Z,32.90
2022-08-17T14:43:05.139Z,31.27
2022-08-17T14:45:33.596Z,32.40
2022-08-17T14:48:07.697Z,30.88
2022-08-17T14:50:43.237Z,33.13
2022-08-17T14:53:18.183Z,31.33
2022-08-17T14:55:51.516Z,31.65
2022-08-17T14:58:20.073Z,32.45
2022-08-17T15:00:50.960Z,33.50
2022-08-17T15:03:41.699Z,33.20
2022-08-17T15:06:16.439Z,32.67
2022-08-17T15:08:44.753Z,35.10
2022-08-17T15:11:15.056Z,32.47
2022-08-17T15:13:52.585Z,33.75
2022-08-17T15:16:27.018Z,31.88
2022-08-17T15:18:55.292Z,32.65
2022-08-17T15:21:23.711Z,32.63
2022-08-17T15:23:51.854Z,33.80
2022-08-17T15:26:26.035Z,37.20
2022-08-17T15:28:57.591Z,33.65
2022-08-17T15:31:31.701Z,33.70
2022-08-17T15:34:01.060Z,33.08
2022-08-17T15:36:30.773Z,32.22
2022-08-17T15:39:00.112Z,31.80
2022-08-17T15:41:29.677Z,28.90
2022-08-17T15:44:02.923Z,31.08
2022-08-17T15:46:31.199Z,30.13
2022-08-17T15:49:03.782Z,31.63
2022-08-17T15:51:34.472Z,31.42
2022-08-17T15:54:18.735Z,30.38
2022-08-17T15:56:52.590Z,30.55
2022-08-17T15:59:20.707Z,29.80
2022-08-17T16:03:13.662Z,30.05
2022-08-17T16:04:38.012Z,30.08
2022-08-17T16:07:11.308Z,31.48
2022-08-17T16:09:39.563Z,27.85
2022-08-17T16:12:14.183Z,28.63
2022-08-17T16:14:42.226Z,29.90
2022-08-17T16:17:38.747Z,31.48
2022-08-17T16:20:01.608Z,29.88
2022-08-17T16:22:35.219Z,30.02
2022-08-17T16:25:06.751Z,28.75
2022-08-17T16:27:39.390Z,30.15
2022-08-17T16:32:47.656Z,31.60
2022-08-17T16:35:27.503Z,34.22
2022-08-17T16:37:58.395Z,33.25
2022-08-17T16:40:28.763Z,34.53
2022-08-17T16:42:58.212Z,36.42
2022-08-17T16:45:29.453Z,35.28
2022-08-17T16:48:00.102Z,34.58
2022-08-17T16:50:28.227Z,32.70
2022-08-17T16:53:06.505Z,34.25
2022-08-17T16:55:39.112Z,35.05
2022-08-17T16:58:08.934Z,34.95
2022-08-17T17:00:41.692Z,34.25
2022-08-17T17:03:18.968Z,35.63
2022-08-17T17:06:06.347Z,34.83
2022-08-17T17:08:40.666Z,34.92
2022-08-17T17:11:14.814Z,36.22
2022-08-17T17:13:50.060Z,35.25
2022-08-17T17:16:23.663Z,34.45
2022-08-17T17:19:07.026Z,35.95
2022-08-17T17:21:42.963Z,35.25
2022-08-17T17:24:18.865Z,36.28
2022-08-17T17:27:01.397Z,35.78
2022-08-17T17:29:48.610Z,36.13
2022-08-17T17:32:24.821Z,36.13
2022-08-17T17:35:01.451Z,34.70
2022-08-17T17:37:34.990Z,34.40
2022-08-17T17:40:09.552Z,35.35
2022-08-17T17:42:42.124Z,34.67
2022-08-17T17:45:20.001Z,34.70
2022-08-17T17:47:50.509Z,34.55
2022-08-17T17:50:34.664Z,35.80
2022-08-17T17:53:07.586Z,36.75
2022-08-17T17:55:47.607Z,38.08
2022-08-17T17:58:44.126Z,36.85
2022-08-17T18:01:24.054Z,37.40
2022-08-17T18:04:20.234Z,31.33
2022-08-17T18:07:05.118Z,25.45
2022-08-17T18:10:05.107Z,28.58
2022-08-17T18:12:56.503Z,26.38
2022-08-17T18:15:33.294Z,23.55
2022-08-17T18:18:33.216Z,19.63
2022-08-17T18:21:06.546Z,20.95
2022-08-17T18:23:36.472Z,19.00
2022-08-17T18:26:04.600Z,26.08
2022-08-17T18:28:38.480Z,29.48
2022-08-17T18:31:13.917Z,36.78
2022-08-17T18:33:52.446Z,38.25
2022-08-17T18:36:28.937Z,38.28
2022-08-17T18:39:11.933Z,37.20
2022-08-17T18:41:42.671Z,38.35
2022-08-17T18:44:25.098Z,37.85
2022-08-17T18:47:18.876Z,38.88
2022-08-17T18:49:56.368Z,39.03
2022-08-17T18:52:28.047Z,38.10
2022-08-17T18:55:03.996Z,38.17
2022-08-17T18:57:42.765Z,38.78
2022-08-17T19:00:19.288Z,40.50
2022-08-17T19:02:53.642Z,39.45
2022-08-17T19:05:36.018Z,42.28
2022-08-17T19:08:22.525Z,42.22
2022-08-17T19:10:54.281Z,40.00
2022-08-17T19:13:26.804Z,39.92
2022-08-17T19:16:12.127Z,41.05
2022-08-17T19:18:47.933Z,42.75
2022-08-17T19:23:55.191Z,40.75
2022-08-17T19:26:50.656Z,39.53
2022-08-17T19:29:19.471Z,41.63
2022-08-17T19:31:50.560Z,41.17
2022-08-17T19:34:30.064Z,41.53
2022-08-17T19:37:10.303Z,39.85
2022-08-17T19:39:49.356Z,40.03
2022-08-17T19:42:31.136Z,41.13
2022-08-17T19:45:05.381Z,40.38
2022-08-17T19:47:55.182Z,39.20
2022-08-17T19:50:38.527Z,40.45
2022-08-17T19:53:19.926Z,39.38
2022-08-17T19:55:58.484Z,39.03
2022-08-17T19:58:41.262Z,40.50
2022-08-17T20:01:23.442Z,41.65
2022-08-17T20:03:57.585Z,39.13
2022-08-17T20:06:30.237Z,41.30
2022-08-17T20:09:15.046Z,41.60
2022-08-17T20:11:49.270Z,41.00
2022-08-17T20:14:22.459Z,43.30
2022-08-17T20:16:52.220Z,42.35
2022-08-17T20:19:30.324Z,44.03
2022-08-17T20:22:04.090Z,42.38
2022-08-17T20:24:43.499Z,44.15
2022-08-17T20:27:17.765Z,45.25
2022-08-17T20:30:09.300Z,45.38
2022-08-17T20:32:52.533Z,46.13
2022-08-17T20:35:26.508Z,46.63
2022-08-17T20:37:57.987Z,46.97
2022-08-17T20:40:35.555Z,48.85
2022-08-17T20:43:49.076Z,50.95
2022-08-17T20:46:31.482Z,49.83
2022-08-17T20:49:14.965Z,50.35
2022-08-17T20:52:01.382Z,50.78
2022-08-17T20:54:50.338Z,51.42
2022-08-17T20:57:48.655Z,51.75
2022-08-17T21:00:44.924Z,52.30
2022-08-17T21:03:51.903Z,51.22
2022-08-17T21:06:26.446Z,49.67
2022-08-17T21:09:19.422Z,50.25
2022-08-17T21:12:04.410Z,50.55
2022-08-17T21:15:00.276Z,51.17
2022-08-17T21:17:47.761Z,49.25
2022-08-17T21:20:32.595Z,50.65
2022-08-17T21:23:19.210Z,50.70
2022-08-17T21:26:10.308Z,50.22
2022-08-17T21:29:00.804Z,53.17
2022-08-17T21:31:34.866Z,53.95
2022-08-17T21:34:25.994Z,53.42
2022-08-17T21:36:54.194Z,53.63
2022-08-17T21:39:33.399Z,55.63
2022-08-17T21:42:02.402Z,54.03
2022-08-17T21:44:36.893Z,52.75
2022-08-17T21:47:20.739Z,53.60
2022-08-17T21:49:49.397Z,53.05
2022-08-17T21:52:21.217Z,54.47
2022-08-17T21:54:53.037Z,54.50
2022-08-17T21:57:24.306Z,55.25
2022-08-17T21:59:56.227Z,56.75
2022-08-17T22:02:36.490Z,55.83
2022-08-17T22:05:08.514Z,56.90
2022-08-17T22:07:39.990Z,57.10
2022-08-17T22:10:27.358Z,57.83
2022-08-17T22:13:16.511Z,56.75
2022-08-17T22:15:47.668Z,58.85
2022-08-17T22:18:22.551Z,57.95
2022-08-17T22:20:52.721Z,57.78
2022-08-17T22:23:43.402Z,58.15
2022-08-17T22:26:14.845Z,58.83
2022-08-17T22:28:46.844Z,58.75
2022-08-17T22:31:17.807Z,59.22
2022-08-17T22:33:51.522Z,59.72
2022-08-17T22:36:25.888Z,58.67
2022-08-17T22:38:55.890Z,58.97
2022-08-17T22:41:45.161Z,59.00
2022-08-17T22:44:27.212Z,59.28
2022-08-17T22:47:00.251Z,55.30
2022-08-17T22:49:35.843Z,52.65
2022-08-17T22:52:23.469Z,54.00
2022-08-17T22:55:30.374Z,53.80
2022-08-17T22:58:16.318Z,53.40
2022-08-17T23:00:48.622Z,50.63
2022-08-17T23:03:19.303Z,50.80
2022-08-17T23:06:03.450Z,53.08
2022-08-17T23:08:33.763Z,47.40
2022-08-17T23:11:02.137Z,50.60
2022-08-17T23:13:33.378Z,49.80
2022-08-17T23:16:02.258Z,49.92
2022-08-17T23:18:30.459Z,50.47
2022-08-17T23:21:01.012Z,47.17
2022-08-17T23:25:59.816Z,44.47
2022-08-17T23:28:28.676Z,43.88
2022-08-17T23:30:56.732Z,45.25
2022-08-17T23:33:29.983Z,43.58
2022-08-17T23:35:59.889Z,43.35
2022-08-17T23:38:28.942Z,40.75
2022-08-17T23:40:59.949Z,42.95
2022-08-17T23:43:29.871Z,40.22
2022-08-17T23:46:01.300Z,39.75
2022-08-17T23:48:36.571Z,42.42
2022-08-17T23:51:11.728Z,39.15
2022-08-17T23:53:47.101Z,37.90
2022-08-17T23:56:16.240Z,37.20
2022-08-17T23:58:45.778Z,34.95
